createdAt,value
2023-02-05T00:00:54.460Z,12.57
2023-02-05T00:03:42.966Z,17.88
2023-02-05T00:06:33.045Z,15.80
2023-02-05T00:09:21.019Z,11.30
2023-02-05T00:12:08.893Z,13.82
2023-02-05T00:14:56.824Z,13.98
2023-02-05T00:17:44.938Z,14.55
2023-02-05T00:20:32.724Z,11.00
2023-02-05T00:23:20.710Z,10.35
2023-02-05T00:26:09.220Z,14.20
2023-02-05T00:28:57.280Z,12.40
2023-02-05T00:31:45.060Z,15.20
2023-02-05T00:34:33.173Z,10.65
2023-02-05T00:37:20.955Z,13.35
2023-02-05T00:40:09.203Z,12.25
2023-02-05T00:42:57.127Z,13.25
2023-02-05T00:45:45.063Z,12.95
2023-02-05T00:48:33.015Z,11.73
2023-02-05T00:51:21.604Z,9.57
2023-02-05T00:54:09.572Z,14.88
2023-02-05T00:56:57.368Z,10.55
2023-02-05T00:59:48.405Z,16.77
2023-02-05T01:02:36.194Z,10.23
2023-02-05T01:05:23.906Z,13.07
2023-02-05T01:08:13.144Z,14.80
2023-02-05T01:11:01.436Z,12.60
2023-02-05T01:13:49.289Z,18.48
2023-02-05T01:16:37.072Z,13.40
2023-02-05T01:19:24.859Z,14.55
2023-02-05T01:22:13.229Z,11.95
2023-02-05T01:25:01.327Z,16.92
2023-02-05T01:27:49.131Z,14.43
2023-02-05T01:30:39.614Z,15.90
2023-02-05T01:33:27.429Z,12.02
2023-02-05T01:36:15.331Z,15.25
2023-02-05T01:39:03.106Z,12.48
2023-02-05T01:41:50.944Z,15.25
2023-02-05T01:44:39.022Z,11.20
2023-02-05T01:47:26.761Z,12.55
2023-02-05T01:50:22.817Z,10.85
2023-02-05T01:53:15.130Z,10.90
2023-02-05T01:56:11.667Z,13.05
2023-02-05T01:59:07.514Z,13.10
2023-02-05T02:01:56.913Z,16.27
2023-02-05T02:04:59.060Z,11.70
2023-02-05T02:07:47.174Z,17.73
2023-02-05T02:10:35.660Z,20.60
2023-02-05T02:13:25.419Z,13.82
2023-02-05T02:16:13.480Z,14.52
2023-02-05T02:19:02.657Z,18.98
2023-02-05T02:22:21.835Z,14.70
2023-02-05T02:25:15.388Z,15.60
2023-02-05T02:28:31.084Z,11.90
2023-02-05T02:31:51.312Z,14.88
2023-02-05T02:34:55.937Z,16.35
2023-02-05T02:37:56.882Z,16.52
2023-02-05T02:40:52.288Z,12.98
2023-02-05T02:43:46.271Z,12.65
2023-02-05T02:49:36.491Z,12.35
2023-02-05T02:52:26.700Z,13.65
2023-02-05T02:55:17.604Z,13.52
2023-02-05T02:58:08.837Z,15.60
2023-02-05T03:00:58.195Z,17.40
2023-02-05T03:03:58.754Z,14.25
2023-02-05T03:06:51.087Z,12.93
2023-02-05T03:10:11.896Z,16.23
2023-02-05T03:12:59.831Z,17.13
2023-02-05T03:15:48.317Z,14.18
2023-02-05T03:18:37.621Z,12.05
2023-02-05T03:21:33.571Z,15.98
2023-02-05T03:24:21.840Z,13.93
2023-02-05T03:27:10.246Z,13.52
2023-02-05T03:29:58.201Z,15.00
2023-02-05T03:33:07.456Z,14.85
2023-02-05T03:36:17.948Z,14.23
2023-02-05T03:39:27.659Z,12.63
2023-02-05T03:42:32.037Z,16.10
2023-02-05T03:45:38.652Z,14.73
2023-02-05T03:48:52.644Z,15.00
2023-02-05T03:52:00.773Z,18.75
2023-02-05T03:54:55.891Z,15.45
2023-02-05T03:57:52.344Z,16.23
2023-02-05T04:00:40.871Z,16.00
2023-02-05T04:03:28.630Z,24.80
2023-02-05T04:06:16.336Z,15.23
2023-02-05T04:09:04.466Z,14.10
2023-02-05T04:11:52.006Z,16.10
2023-02-05T04:14:39.759Z,18.30
2023-02-05T04:17:27.546Z,15.45
2023-02-05T04:20:15.495Z,16.15
2023-02-05T04:23:04.479Z,15.20
2023-02-05T04:25:56.264Z,14.30
2023-02-05T04:28:44.079Z,14.77
2023-02-05T04:31:32.061Z,13.93
2023-02-05T04:34:19.872Z,14.02
2023-02-05T04:37:07.523Z,14.98
2023-02-05T04:39:55.216Z,15.75
2023-02-05T04:42:43.317Z,15.52
2023-02-05T04:45:33.587Z,15.10
2023-02-05T04:48:21.722Z,16.17
2023-02-05T04:51:11.169Z,16.33
2023-02-05T04:54:00.936Z,13.75
2023-02-05T04:56:48.925Z,16.40
2023-02-05T04:59:36.999Z,12.90
2023-02-05T05:02:25.095Z,14.02
2023-02-05T05:05:12.901Z,15.82
2023-02-05T05:08:01.904Z,12.00
2023-02-05T05:10:49.578Z,17.27
2023-02-05T05:13:38.198Z,15.98
2023-02-05T05:16:25.894Z,14.82
2023-02-05T05:19:13.446Z,18.10
2023-02-05T05:22:01.043Z,19.23
2023-02-05T05:24:49.125Z,16.98
2023-02-05T05:27:36.739Z,14.20
2023-02-05T05:30:24.564Z,12.13
2023-02-05T05:33:12.831Z,14.70
2023-02-05T05:36:00.844Z,19.48
2023-02-05T05:38:48.951Z,13.60
2023-02-05T05:41:55.063Z,17.02
2023-02-05T05:44:43.520Z,18.75
2023-02-05T05:47:31.795Z,16.15
2023-02-05T05:50:19.674Z,16.50
2023-02-05T05:53:07.240Z,18.58
2023-02-05T05:55:55.245Z,19.27
2023-02-05T05:58:43.053Z,21.08
2023-02-05T06:01:30.998Z,21.65
2023-02-05T06:04:18.875Z,15.00
2023-02-05T06:07:06.920Z,14.32
2023-02-05T06:09:54.981Z,16.00
2023-02-05T06:12:45.985Z,15.30
2023-02-05T06:15:34.624Z,20.38
2023-02-05T06:18:23.933Z,14.40
2023-02-05T06:21:11.838Z,22.83
2023-02-05T06:23:59.983Z,20.90
2023-02-05T06:26:47.911Z,23.85
2023-02-05T06:29:36.264Z,21.63
2023-02-05T06:32:26.515Z,22.38
2023-02-05T06:35:15.242Z,21.38
2023-02-05T06:38:27.464Z,23.95
2023-02-05T06:41:42.848Z,23.80
2023-02-05T06:45:07.652Z,26.45
2023-02-05T06:51:03.467Z,22.50
2023-02-05T06:54:02.724Z,21.95
2023-02-05T06:57:17.058Z,23.80
2023-02-05T07:08:07.230Z,20.52
2023-02-05T07:11:24.015Z,26.50
2023-02-05T07:14:16.797Z,30.65
2023-02-05T07:17:18.036Z,27.02
2023-02-05T07:23:53.219Z,26.60
2023-02-05T07:27:52.778Z,30.55
2023-02-05T07:37:15.542Z,42.95
2023-02-05T07:40:03.934Z,42.10
2023-02-05T07:42:54.282Z,45.88
2023-02-05T07:45:41.918Z,36.25
2023-02-05T07:48:32.426Z,47.83
2023-02-05T07:51:23.660Z,36.15
2023-02-05T07:54:14.817Z,42.13
2023-02-05T07:57:08.119Z,38.05
2023-02-05T07:59:56.229Z,38.08
2023-02-05T08:02:44.382Z,32.95
2023-02-05T08:05:32.868Z,37.38
2023-02-05T08:08:21.048Z,55.05
2023-02-05T08:11:15.196Z,45.45
2023-02-05T08:14:03.027Z,50.53
2023-02-05T08:16:51.314Z,57.00
2023-02-05T08:19:42.610Z,33.08
2023-02-05T08:22:30.336Z,42.92
2023-02-05T08:25:21.812Z,54.42
2023-02-05T08:28:13.932Z,55.85
2023-02-05T08:31:15.291Z,51.65
2023-02-05T08:34:08.309Z,58.45
2023-02-05T08:37:07.187Z,50.30
2023-02-05T08:40:00.408Z,45.65
2023-02-05T08:45:57.008Z,51.28
2023-02-05T08:51:58.960Z,45.03
2023-02-05T08:54:49.670Z,50.03
2023-02-05T08:57:37.813Z,62.53
2023-02-05T09:00:31.882Z,67.22
2023-02-05T09:03:28.466Z,57.15
2023-02-05T09:06:17.414Z,57.97
2023-02-05T09:09:08.436Z,64.22
2023-02-05T09:11:59.214Z,56.45
2023-02-05T09:14:47.171Z,53.40
2023-02-05T09:17:38.107Z,51.65
2023-02-05T09:20:26.056Z,48.15
2023-02-05T09:23:18.007Z,50.90
2023-02-05T09:25:48.474Z,54.20
2023-02-05T09:28:56.886Z,56.67
2023-02-05T09:32:22.753Z,57.42
2023-02-05T09:34:57.801Z,53.03
2023-02-05T09:45:30.430Z,47.75
2023-02-05T09:48:38.818Z,54.22
2023-02-05T09:51:50.112Z,50.17
2023-02-05T09:55:00.774Z,41.45
2023-02-05T09:57:58.343Z,49.83
2023-02-05T10:01:02.019Z,56.05
2023-02-05T10:04:18.946Z,49.03
2023-02-05T10:07:59.790Z,50.53
2023-02-05T10:10:54.185Z,54.17
2023-02-05T10:15:07.904Z,48.55
2023-02-05T10:17:45.452Z,59.35
2023-02-05T10:20:56.719Z,51.97
2023-02-05T10:24:10.215Z,61.75
2023-02-05T10:39:05.001Z,65.43
2023-02-05T10:56:39.803Z,69.07
2023-02-05T10:59:47.502Z,81.70
2023-02-05T11:02:48.380Z,77.60
2023-02-05T11:05:44.129Z,65.82
2023-02-05T11:08:50.017Z,64.60
2023-02-05T11:11:41.960Z,65.88
2023-02-05T11:14:48.409Z,58.65
2023-02-05T11:17:43.354Z,66.32
2023-02-05T11:20:49.985Z,59.92
2023-02-05T11:24:03.709Z,53.83
2023-02-05T11:27:15.291Z,42.47
2023-02-05T11:30:52.316Z,51.33
2023-02-05T11:33:41.801Z,36.97
2023-02-05T11:37:37.839Z,49.20
2023-02-05T11:40:58.520Z,44.40
2023-02-05T11:48:20.550Z,52.30
2023-02-05T11:51:39.882Z,40.42
2023-02-05T11:55:15.528Z,42.58
2023-02-05T11:58:51.459Z,43.75
2023-02-05T12:05:26.648Z,49.35
2023-02-05T12:09:14.433Z,44.72
2023-02-05T12:12:26.581Z,43.38
2023-02-05T12:15:50.723Z,48.42
2023-02-05T12:23:33.339Z,38.83
2023-02-05T12:34:34.100Z,46.15
2023-02-05T12:38:12.403Z,39.28
2023-02-05T12:49:36.856Z,35.60
2023-02-05T12:52:59.132Z,30.55
2023-02-05T13:04:03.554Z,29.75
2023-02-05T13:07:18.896Z,30.33
2023-02-05T14:04:38.826Z,34.50
2023-02-05T14:07:51.485Z,36.88
2023-02-05T14:10:49.526Z,36.78
2023-02-05T14:13:45.052Z,43.05
2023-02-05T14:16:36.168Z,36.47
2023-02-05T14:19:28.868Z,40.80
2023-02-05T14:22:43.917Z,38.80
2023-02-05T14:25:40.090Z,36.47
2023-02-05T14:28:31.556Z,32.83
2023-02-05T14:31:54.722Z,28.85
2023-02-05T14:34:46.514Z,29.45
2023-02-05T14:37:39.997Z,28.92
2023-02-05T14:40:32.621Z,32.70
2023-02-05T14:43:33.337Z,34.55
2023-02-05T14:46:40.727Z,39.00
2023-02-05T14:49:33.993Z,32.40
2023-02-05T14:52:32.500Z,36.87
2023-02-05T14:55:25.803Z,37.22
2023-02-05T14:58:25.976Z,37.10
2023-02-05T15:01:36.482Z,35.25
2023-02-05T15:04:47.023Z,36.28
2023-02-05T15:07:38.158Z,37.50
2023-02-05T15:10:33.041Z,35.08
2023-02-05T15:13:26.757Z,35.17
2023-02-05T15:16:15.199Z,35.25
2023-02-05T15:19:06.778Z,33.45
2023-02-05T15:21:55.193Z,33.45
2023-02-05T15:24:46.229Z,33.75
2023-02-05T15:27:55.372Z,34.25
2023-02-05T15:31:08.387Z,38.00
2023-02-05T15:34:29.726Z,33.30
2023-02-05T15:37:43.678Z,34.50
2023-02-05T15:40:39.009Z,36.40
2023-02-05T15:43:35.798Z,33.70
2023-02-05T15:46:24.063Z,33.38
2023-02-05T15:49:15.140Z,33.80
2023-02-05T15:52:03.838Z,34.08
2023-02-05T15:55:03.766Z,34.03
2023-02-05T15:57:52.080Z,34.10
2023-02-05T16:00:45.371Z,34.28
2023-02-05T16:03:37.052Z,32.10
2023-02-05T16:06:29.132Z,34.35
2023-02-05T16:09:24.277Z,33.40
2023-02-05T16:12:13.916Z,37.88
2023-02-05T16:15:14.094Z,31.67
2023-02-05T16:18:07.361Z,35.17
2023-02-05T16:21:05.994Z,36.90
2023-02-05T16:24:00.351Z,40.08
2023-02-05T16:27:01.596Z,37.80
2023-02-05T16:29:57.412Z,36.28
2023-02-05T16:32:45.778Z,36.95
2023-02-05T16:35:48.943Z,39.42
2023-02-05T16:38:45.259Z,37.08
2023-02-05T16:41:47.404Z,38.83
2023-02-05T16:44:55.826Z,39.55
2023-02-05T16:48:38.116Z,37.53
2023-02-05T16:51:33.819Z,32.38
2023-02-05T16:54:24.793Z,33.47
2023-02-05T16:57:26.360Z,36.35
2023-02-05T17:00:27.910Z,38.03
2023-02-05T17:03:27.421Z,35.92
2023-02-05T17:06:29.844Z,38.63
2023-02-05T17:09:47.189Z,40.63
2023-02-05T17:12:47.064Z,40.15
2023-02-05T17:15:40.406Z,39.55
2023-02-05T17:18:34.774Z,34.92
2023-02-05T17:21:30.522Z,40.22
2023-02-05T17:24:21.896Z,36.42
2023-02-05T17:27:17.608Z,39.05
2023-02-05T17:30:14.562Z,34.05
2023-02-05T17:33:06.528Z,39.17
2023-02-05T17:35:55.013Z,36.80
2023-02-05T17:38:48.672Z,35.35
2023-02-05T17:41:56.788Z,35.50
2023-02-05T17:44:45.099Z,35.20
2023-02-05T17:47:33.048Z,32.53
2023-02-05T17:50:21.289Z,34.72
2023-02-05T17:53:14.107Z,32.38
2023-02-05T17:56:02.075Z,34.97
2023-02-05T17:58:53.693Z,29.95
2023-02-05T18:01:41.545Z,33.40
2023-02-05T18:04:29.468Z,32.78
2023-02-05T18:07:29.747Z,36.40
2023-02-05T18:10:25.336Z,33.83
2023-02-05T18:13:16.849Z,30.02
2023-02-05T18:16:05.239Z,34.78
2023-02-05T18:18:58.870Z,35.67
2023-02-05T18:22:00.599Z,35.38
2023-02-05T18:24:51.581Z,27.98
2023-02-05T18:27:48.465Z,36.17
2023-02-05T18:30:48.091Z,32.55
2023-02-05T18:38:08.926Z,37.38
2023-02-05T18:41:24.769Z,38.63
2023-02-05T18:44:18.478Z,36.40
2023-02-05T18:47:07.559Z,34.83
2023-02-05T18:56:05.804Z,33.90
2023-02-05T18:59:01.413Z,33.75
2023-02-05T19:01:49.246Z,39.92
2023-02-05T19:04:39.486Z,43.58
2023-02-05T19:07:36.634Z,36.30
2023-02-05T19:10:29.769Z,42.15
2023-02-05T19:13:18.100Z,37.90
2023-02-05T19:16:09.352Z,42.60
2023-02-05T19:18:57.849Z,35.38
2023-02-05T19:21:50.390Z,63.33
2023-02-05T19:24:40.618Z,45.50
2023-02-05T19:27:32.829Z,40.15
2023-02-05T19:30:27.648Z,39.58
2023-02-05T19:33:15.658Z,38.50
2023-02-05T19:36:10.306Z,41.10
2023-02-05T19:42:02.788Z,44.47
2023-02-05T19:44:50.490Z,39.33
2023-02-05T19:47:48.726Z,39.75
2023-02-05T19:50:47.692Z,35.97
2023-02-05T19:53:45.436Z,38.53
2023-02-05T19:56:37.887Z,39.75
2023-02-05T19:59:26.222Z,38.05
2023-02-05T20:02:19.591Z,35.45
2023-02-05T20:05:10.055Z,37.20
2023-02-05T20:07:57.808Z,35.90
2023-02-05T20:10:46.217Z,35.75
2023-02-05T20:13:41.976Z,34.40
2023-02-05T20:16:29.912Z,32.20
2023-02-05T20:19:18.059Z,33.05
2023-02-05T20:22:09.330Z,33.65
2023-02-05T20:25:28.052Z,35.10
2023-02-05T20:28:18.378Z,26.33
2023-02-05T20:31:37.185Z,28.85
2023-02-05T20:34:31.215Z,28.35
2023-02-05T20:37:19.899Z,28.63
2023-02-05T20:40:11.195Z,33.67
2023-02-05T20:43:01.389Z,34.95
2023-02-05T20:45:49.451Z,34.22
2023-02-05T20:48:43.274Z,34.25
2023-02-05T20:51:31.424Z,34.58
2023-02-05T20:54:26.061Z,32.67
2023-02-05T20:57:25.867Z,32.80
2023-02-05T21:00:24.676Z,33.70
2023-02-05T21:03:32.150Z,33.08
2023-02-05T21:06:36.822Z,37.42
2023-02-05T21:09:36.828Z,37.88
2023-02-05T21:12:32.635Z,37.70
2023-02-05T21:15:25.943Z,36.55
2023-02-05T21:18:13.765Z,36.85
2023-02-05T21:21:15.680Z,37.30
2023-02-05T21:24:07.465Z,36.67
2023-02-05T21:26:58.449Z,38.67
2023-02-05T21:29:46.436Z,39.13
2023-02-05T21:32:34.847Z,38.50
2023-02-05T21:35:23.292Z,42.97
2023-02-05T21:38:11.027Z,41.65
2023-02-05T21:41:06.464Z,39.60
2023-02-05T21:43:56.521Z,43.10
2023-02-05T21:46:44.578Z,39.42
2023-02-05T21:49:32.483Z,38.00
2023-02-05T21:52:23.734Z,39.67
2023-02-05T21:55:11.733Z,41.53
2023-02-05T21:57:59.724Z,41.38
2023-02-05T22:00:47.625Z,42.95
2023-02-05T22:03:35.428Z,39.08
2023-02-05T22:06:25.317Z,38.55
2023-02-05T22:09:15.885Z,41.38
2023-02-05T22:12:06.998Z,40.22
2023-02-05T22:14:54.674Z,44.53
2023-02-05T22:20:56.003Z,43.07
2023-02-05T22:23:46.101Z,46.42
2023-02-05T22:27:19.035Z,44.20
2023-02-05T22:33:08.771Z,47.83
2023-02-05T22:35:57.215Z,46.38
2023-02-05T22:38:48.798Z,46.67
2023-02-05T22:41:39.375Z,46.65
2023-02-05T22:44:27.247Z,46.13
2023-02-05T22:47:14.896Z,47.65
2023-02-05T22:50:06.336Z,46.95
2023-02-05T22:52:54.130Z,47.95
2023-02-05T22:55:42.645Z,49.45
2023-02-05T22:58:30.985Z,44.80
2023-02-05T23:01:21.839Z,46.95
2023-02-05T23:04:10.387Z,43.92
2023-02-05T23:06:58.396Z,46.67
2023-02-05T23:09:46.128Z,45.78
2023-02-05T23:12:36.393Z,49.13
2023-02-05T23:15:24.224Z,48.50
2023-02-05T23:18:12.041Z,48.13
2023-02-05T23:20:59.843Z,46.72
2023-02-05T23:23:49.615Z,49.30
2023-02-05T23:26:42.350Z,60.40
2023-02-05T23:29:33.449Z,46.72
2023-02-05T23:32:21.455Z,49.33
2023-02-05T23:35:09.454Z,46.38
2023-02-05T23:37:57.282Z,46.22
2023-02-05T23:40:45.305Z,48.97
2023-02-05T23:43:35.185Z,43.17
2023-02-05T23:46:23.105Z,47.45
2023-02-05T23:49:15.034Z,40.97
2023-02-05T23:52:02.791Z,41.42
2023-02-05T23:54:50.882Z,40.03
2023-02-05T23:57:38.789Z,39.67
